createdAt,value
2024-05-09T00:00:06.366Z,8.50
2024-05-09T00:00:48.682Z,8.30
2024-05-09T00:01:28.547Z,8.18
2024-05-09T00:02:08.544Z,8.00
2024-05-09T00:02:48.576Z,7.95
2024-05-09T00:03:28.423Z,8.00
2024-05-09T00:04:08.520Z,8.52
2024-05-09T00:04:48.433Z,8.10
2024-05-09T00:05:28.449Z,9.02
2024-05-09T00:06:11.161Z,8.70
2024-05-09T00:06:50.942Z,8.93
2024-05-09T00:07:30.794Z,8.10
2024-05-09T00:08:12.201Z,8.60
2024-05-09T00:08:52.318Z,8.35
2024-05-09T00:09:32.039Z,8.13
2024-05-09T00:10:18.319Z,8.90
2024-05-09T00:11:05.915Z,7.85
2024-05-09T00:11:45.903Z,8.65
2024-05-09T00:12:25.783Z,8.88
2024-05-09T00:13:06.556Z,8.32
2024-05-09T00:13:47.195Z,8.93
2024-05-09T00:14:26.982Z,8.32
2024-05-09T00:15:07.264Z,8.02
2024-05-09T00:15:47.158Z,8.18
2024-05-09T00:16:27.561Z,9.20
2024-05-09T00:17:07.524Z,9.15
2024-05-09T00:17:47.550Z,8.68
2024-05-09T00:18:27.746Z,8.85
2024-05-09T00:19:08.150Z,7.88
2024-05-09T00:19:47.998Z,8.73
2024-05-09T00:20:37.087Z,7.90
2024-05-09T00:21:19.993Z,7.97
2024-05-09T00:22:00.288Z,8.10
2024-05-09T00:22:40.015Z,8.32
2024-05-09T00:23:19.906Z,8.40
2024-05-09T00:23:59.820Z,7.57
2024-05-09T00:24:39.916Z,7.93
2024-05-09T00:25:19.757Z,7.80
2024-05-09T00:25:59.601Z,8.77
2024-05-09T00:26:39.469Z,8.57
2024-05-09T00:27:19.604Z,8.55
2024-05-09T00:27:59.391Z,7.47
2024-05-09T00:28:39.279Z,8.27
2024-05-09T00:29:19.137Z,8.35
2024-05-09T00:29:59.072Z,8.43
2024-05-09T00:30:38.985Z,8.63
2024-05-09T00:31:18.829Z,8.23
2024-05-09T00:31:58.679Z,8.32
2024-05-09T00:32:39.031Z,7.90
2024-05-09T00:33:19.099Z,8.00
2024-05-09T00:33:59.354Z,7.20
2024-05-09T00:34:39.287Z,8.77
2024-05-09T00:35:20.054Z,7.85
2024-05-09T00:35:59.787Z,7.82
2024-05-09T00:36:39.559Z,7.85
2024-05-09T00:37:19.459Z,8.38
2024-05-09T00:37:59.668Z,7.53
2024-05-09T00:38:39.611Z,8.27
2024-05-09T00:39:19.332Z,7.97
2024-05-09T00:39:59.078Z,7.82
2024-05-09T00:40:42.627Z,7.72
2024-05-09T00:41:23.414Z,7.90
2024-05-09T00:42:03.209Z,7.30
2024-05-09T00:42:43.040Z,7.70
2024-05-09T00:43:23.052Z,8.18
2024-05-09T00:44:03.501Z,7.60
2024-05-09T00:44:43.351Z,8.18
2024-05-09T00:45:23.120Z,7.63
2024-05-09T00:46:03.363Z,8.05
2024-05-09T00:46:43.225Z,9.05
2024-05-09T00:47:25.101Z,8.20
2024-05-09T00:48:08.667Z,7.18
2024-05-09T00:49:30.468Z,7.57
2024-05-09T00:50:15.995Z,8.32
2024-05-09T00:51:03.299Z,8.40
2024-05-09T00:51:44.220Z,9.70
2024-05-09T00:52:24.014Z,8.88
2024-05-09T00:53:04.051Z,9.30
2024-05-09T00:53:44.221Z,10.10
2024-05-09T00:54:25.342Z,7.60
2024-05-09T00:55:05.158Z,7.47
2024-05-09T00:55:45.834Z,7.50
2024-05-09T00:56:26.389Z,8.35
2024-05-09T00:57:07.030Z,7.63
2024-05-09T00:57:46.889Z,7.65
2024-05-09T00:58:29.383Z,6.95
2024-05-09T00:59:09.887Z,7.65
2024-05-09T00:59:50.654Z,7.97
2024-05-09T01:01:18.631Z,8.80
2024-05-09T01:01:59.589Z,9.35
2024-05-09T01:02:40.329Z,8.88
2024-05-09T01:03:20.443Z,9.13
2024-05-09T01:04:01.623Z,8.95
2024-05-09T01:04:41.543Z,9.00
2024-05-09T01:05:21.429Z,9.20
2024-05-09T01:06:01.175Z,8.95
2024-05-09T01:06:41.001Z,9.00
2024-05-09T01:07:20.903Z,9.63
2024-05-09T01:08:01.349Z,9.07
2024-05-09T01:08:41.165Z,8.90
2024-05-09T01:09:20.908Z,8.60
2024-05-09T01:10:00.693Z,8.85
2024-05-09T01:10:44.164Z,9.07
2024-05-09T01:11:25.788Z,8.82
2024-05-09T01:12:05.932Z,8.50
2024-05-09T01:12:45.783Z,7.75
2024-05-09T01:13:25.918Z,8.43
2024-05-09T01:14:05.895Z,8.45
2024-05-09T01:14:45.861Z,8.18
2024-05-09T01:15:25.627Z,8.25
2024-05-09T01:16:06.649Z,8.88
2024-05-09T01:16:46.634Z,8.43
2024-05-09T01:17:27.062Z,8.55
2024-05-09T01:18:12.365Z,8.60
2024-05-09T01:18:53.646Z,7.78
2024-05-09T01:19:33.668Z,8.00
2024-05-09T01:20:20.000Z,6.97
2024-05-09T01:21:10.387Z,7.35
2024-05-09T01:21:50.587Z,7.95
2024-05-09T01:22:32.216Z,8.40
2024-05-09T01:23:12.572Z,8.30
2024-05-09T01:23:53.444Z,8.52
2024-05-09T01:24:33.286Z,8.05
2024-05-09T01:25:13.050Z,8.27
2024-05-09T01:25:52.757Z,7.82
2024-05-09T01:26:32.538Z,8.73
2024-05-09T01:27:12.522Z,8.20
2024-05-09T01:27:52.246Z,8.13
2024-05-09T01:28:31.956Z,9.23
2024-05-09T01:29:11.752Z,8.30
2024-05-09T01:29:51.956Z,8.18
2024-05-09T01:30:35.287Z,8.20
2024-05-09T01:31:17.093Z,7.03
2024-05-09T01:32:00.054Z,8.02
2024-05-09T01:32:40.288Z,8.70
2024-05-09T01:33:20.453Z,8.15
2024-05-09T01:34:00.600Z,8.52
2024-05-09T01:34:40.402Z,8.55
2024-05-09T01:35:24.628Z,8.80
2024-05-09T01:36:04.494Z,7.95
2024-05-09T01:36:44.207Z,7.75
2024-05-09T01:37:23.971Z,8.05
2024-05-09T01:38:04.452Z,8.77
2024-05-09T01:38:44.293Z,7.95
2024-05-09T01:39:24.696Z,8.80
2024-05-09T01:40:07.434Z,9.23
2024-05-09T01:40:50.540Z,8.10
2024-05-09T01:41:30.376Z,7.70
2024-05-09T01:42:10.115Z,8.75
2024-05-09T01:42:49.864Z,8.18
2024-05-09T01:43:30.265Z,9.38
2024-05-09T01:44:10.165Z,8.65
2024-05-09T01:44:49.942Z,8.57
2024-05-09T01:45:29.963Z,7.95
2024-05-09T01:46:17.933Z,8.68
2024-05-09T01:46:57.673Z,8.63
2024-05-09T01:47:37.807Z,8.98
2024-05-09T01:48:17.842Z,9.85
2024-05-09T01:48:58.580Z,9.93
2024-05-09T01:49:39.453Z,10.05
2024-05-09T01:50:28.934Z,9.95
2024-05-09T01:51:16.477Z,10.10
2024-05-09T01:51:56.733Z,9.40
2024-05-09T01:52:39.683Z,9.77
2024-05-09T01:53:19.591Z,7.97
2024-05-09T01:53:59.370Z,9.95
2024-05-09T01:54:39.223Z,8.73
2024-05-09T01:55:19.005Z,8.55
2024-05-09T01:55:58.806Z,9.07
2024-05-09T01:56:38.631Z,8.65
2024-05-09T01:57:18.979Z,8.73
2024-05-09T01:57:58.827Z,8.52
2024-05-09T01:58:39.666Z,8.90
2024-05-09T01:59:19.488Z,9.10
2024-05-09T02:00:00.054Z,8.60
2024-05-09T02:00:42.784Z,9.40
2024-05-09T02:01:23.351Z,9.55
2024-05-09T02:02:03.266Z,9.52
2024-05-09T02:02:46.751Z,10.20
2024-05-09T02:03:26.748Z,9.13
2024-05-09T02:04:06.978Z,8.82
2024-05-09T02:04:51.394Z,9.40
2024-05-09T02:05:31.705Z,9.38
2024-05-09T02:06:11.665Z,10.05
2024-05-09T02:06:51.461Z,9.88
2024-05-09T02:07:31.340Z,8.73
2024-05-09T02:08:19.341Z,9.30
2024-05-09T02:08:59.401Z,9.23
2024-05-09T02:09:39.175Z,9.43
2024-05-09T02:10:26.015Z,10.60
2024-05-09T02:11:11.900Z,9.07
2024-05-09T02:11:52.240Z,8.75
2024-05-09T02:12:32.668Z,9.75
2024-05-09T02:13:12.706Z,10.50
2024-05-09T02:13:52.802Z,9.32
2024-05-09T02:14:32.626Z,9.23
2024-05-09T02:15:12.381Z,9.50
2024-05-09T02:15:53.200Z,9.75
2024-05-09T02:16:33.380Z,9.55
2024-05-09T02:17:13.287Z,9.00
2024-05-09T02:17:53.401Z,9.63
2024-05-09T02:18:33.390Z,9.43
2024-05-09T02:19:13.467Z,8.55
2024-05-09T02:19:53.360Z,9.05
2024-05-09T02:20:36.433Z,9.40
2024-05-09T02:21:17.499Z,9.00
2024-05-09T02:21:57.672Z,9.98
2024-05-09T02:22:37.372Z,9.85
2024-05-09T02:23:17.264Z,9.48
2024-05-09T02:23:57.080Z,9.10
2024-05-09T02:24:37.181Z,9.10
2024-05-09T02:25:16.970Z,9.70
2024-05-09T02:25:56.967Z,9.13
2024-05-09T02:26:36.721Z,9.65
2024-05-09T02:27:16.953Z,10.18
2024-05-09T02:27:56.706Z,9.68
2024-05-09T02:28:36.440Z,9.30
2024-05-09T02:29:16.245Z,8.85
2024-05-09T02:29:56.568Z,9.13
2024-05-09T02:30:40.597Z,9.48
2024-05-09T02:31:21.895Z,9.40
2024-05-09T02:32:01.668Z,9.45
2024-05-09T02:32:41.960Z,9.90
2024-05-09T02:33:22.158Z,9.80
2024-05-09T02:34:02.437Z,9.95
2024-05-09T02:34:42.313Z,8.90
2024-05-09T02:35:22.394Z,9.15
2024-05-09T02:36:02.225Z,9.20
2024-05-09T02:36:41.982Z,9.27
2024-05-09T02:37:21.676Z,9.50
2024-05-09T02:38:02.020Z,9.60
2024-05-09T02:38:42.039Z,9.95
2024-05-09T02:39:21.872Z,9.30
2024-05-09T02:40:01.661Z,9.32
2024-05-09T02:40:41.916Z,9.95
2024-05-09T02:41:21.727Z,9.93
2024-05-09T02:42:01.477Z,9.52
2024-05-09T02:42:42.280Z,9.45
2024-05-09T02:43:22.167Z,9.65
2024-05-09T02:44:01.942Z,10.20
2024-05-09T02:44:41.736Z,9.77
2024-05-09T02:45:21.467Z,9.40
2024-05-09T02:46:01.752Z,10.82
2024-05-09T02:46:41.483Z,9.60
2024-05-09T02:47:21.578Z,9.95
2024-05-09T02:48:02.199Z,9.38
2024-05-09T02:48:42.741Z,9.32
2024-05-09T02:49:22.672Z,10.35
2024-05-09T02:50:03.050Z,9.23
2024-05-09T02:50:45.216Z,9.48
2024-05-09T02:51:25.152Z,9.80
2024-05-09T02:52:04.938Z,10.35
2024-05-09T02:52:44.749Z,9.85
2024-05-09T02:53:24.737Z,10.10
2024-05-09T02:54:04.691Z,9.15
2024-05-09T02:54:44.412Z,10.20
2024-05-09T02:55:24.345Z,10.68
2024-05-09T02:56:04.106Z,9.57
2024-05-09T02:56:44.191Z,10.02
2024-05-09T02:57:23.962Z,10.45
2024-05-09T02:58:03.762Z,9.35
2024-05-09T02:58:43.571Z,9.27
2024-05-09T02:59:23.992Z,10.60
2024-05-09T03:00:06.206Z,9.68
2024-05-09T03:00:47.542Z,9.57
2024-05-09T03:01:27.329Z,9.77
2024-05-09T03:02:07.398Z,9.85
2024-05-09T03:02:47.242Z,9.90
2024-05-09T03:03:27.497Z,10.32
2024-05-09T03:04:07.759Z,10.15
2024-05-09T03:04:47.974Z,9.93
2024-05-09T03:05:27.888Z,10.38
2024-05-09T03:06:07.746Z,9.32
2024-05-09T03:06:47.519Z,9.68
2024-05-09T03:07:27.525Z,9.40
2024-05-09T03:08:07.825Z,9.68
2024-05-09T03:08:49.895Z,10.48
2024-05-09T03:09:30.055Z,10.18
2024-05-09T03:10:18.275Z,10.48
2024-05-09T03:11:02.183Z,10.35
2024-05-09T03:11:42.091Z,10.32
2024-05-09T03:12:21.921Z,10.52
2024-05-09T03:13:02.025Z,10.75
2024-05-09T03:13:43.641Z,10.55
2024-05-09T03:14:23.821Z,9.30
2024-05-09T03:15:03.767Z,9.90
2024-05-09T03:15:44.706Z,10.90
2024-05-09T03:16:24.695Z,9.35
2024-05-09T03:17:04.600Z,9.80
2024-05-09T03:17:44.639Z,9.57
2024-05-09T03:18:25.245Z,9.90
2024-05-09T03:19:05.107Z,9.77
2024-05-09T03:19:44.909Z,9.88
2024-05-09T03:20:32.252Z,9.85
2024-05-09T03:21:14.454Z,9.75
2024-05-09T03:21:55.463Z,11.20
2024-05-09T03:22:35.269Z,10.20
2024-05-09T03:23:15.216Z,9.50
2024-05-09T03:23:55.543Z,9.73
2024-05-09T03:24:35.434Z,9.57
2024-05-09T03:25:15.288Z,9.95
2024-05-09T03:25:55.196Z,10.23
2024-05-09T03:26:35.727Z,10.00
2024-05-09T03:27:15.570Z,11.20
2024-05-09T03:27:55.844Z,10.07
2024-05-09T03:28:35.610Z,10.07
2024-05-09T03:29:15.657Z,11.05
2024-05-09T03:29:55.458Z,10.23
2024-05-09T03:30:40.670Z,10.88
2024-05-09T03:31:22.616Z,11.10
2024-05-09T03:32:02.767Z,11.48
2024-05-09T03:32:45.036Z,10.30
2024-05-09T03:33:25.006Z,10.05
2024-05-09T03:34:05.248Z,10.05
2024-05-09T03:34:45.257Z,9.52
2024-05-09T03:35:25.273Z,10.02
2024-05-09T03:36:09.108Z,9.75
2024-05-09T03:36:50.400Z,10.38
2024-05-09T03:37:30.409Z,9.27
2024-05-09T03:38:10.223Z,9.75
2024-05-09T03:38:51.819Z,9.55
2024-05-09T03:39:31.629Z,10.77
2024-05-09T03:40:17.731Z,9.48
2024-05-09T03:41:00.783Z,10.75
2024-05-09T03:41:40.699Z,9.77
2024-05-09T03:42:20.435Z,10.30
2024-05-09T03:43:00.467Z,10.20
2024-05-09T03:43:40.164Z,9.23
2024-05-09T03:44:20.428Z,9.90
2024-05-09T03:45:00.368Z,9.90
2024-05-09T03:45:40.677Z,10.50
2024-05-09T03:46:20.496Z,10.32
2024-05-09T03:47:00.241Z,9.98
2024-05-09T03:47:40.249Z,9.60
2024-05-09T03:48:21.635Z,10.32
2024-05-09T03:49:01.624Z,9.57
2024-05-09T03:49:41.673Z,10.07
2024-05-09T03:50:30.020Z,9.32
2024-05-09T03:51:13.921Z,10.63
2024-05-09T03:51:53.712Z,10.77
2024-05-09T03:52:33.582Z,10.02
2024-05-09T03:53:14.966Z,10.30
2024-05-09T03:53:55.132Z,9.77
2024-05-09T03:54:37.562Z,11.13
2024-05-09T03:55:18.081Z,10.05
2024-05-09T03:55:58.291Z,10.35
2024-05-09T03:56:38.907Z,10.95
2024-05-09T03:57:18.704Z,10.15
2024-05-09T03:57:58.670Z,10.00
2024-05-09T03:58:38.652Z,11.27
2024-05-09T03:59:19.382Z,10.38
2024-05-09T03:59:59.167Z,10.00
2024-05-09T04:00:40.238Z,10.68
2024-05-09T04:01:20.301Z,10.60
2024-05-09T04:02:00.557Z,9.48
2024-05-09T04:02:44.517Z,10.13
2024-05-09T04:03:24.586Z,10.65
2024-05-09T04:04:05.228Z,10.20
2024-05-09T04:04:46.020Z,11.25
2024-05-09T04:05:27.291Z,10.93
2024-05-09T04:06:07.767Z,10.77
2024-05-09T04:06:48.250Z,9.98
2024-05-09T04:07:28.062Z,9.77
2024-05-09T04:08:08.169Z,10.88
2024-05-09T04:08:48.047Z,11.00
2024-05-09T04:09:27.829Z,11.15
2024-05-09T04:10:16.985Z,10.80
2024-05-09T04:11:03.606Z,9.98
2024-05-09T04:11:43.693Z,9.93
2024-05-09T04:12:23.562Z,11.63
2024-05-09T04:13:04.611Z,10.73
2024-05-09T04:13:44.421Z,10.80
2024-05-09T04:14:24.587Z,10.05
2024-05-09T04:15:04.973Z,11.40
2024-05-09T04:15:44.983Z,11.38
2024-05-09T04:16:25.138Z,11.85
2024-05-09T04:17:05.027Z,11.18
2024-05-09T04:17:51.980Z,10.27
2024-05-09T04:18:32.026Z,9.98
2024-05-09T04:19:11.948Z,10.73
2024-05-09T04:19:51.809Z,9.40
2024-05-09T04:20:38.203Z,9.90
2024-05-09T04:21:20.440Z,10.07
2024-05-09T04:22:00.915Z,10.07
2024-05-09T04:22:40.865Z,9.20
2024-05-09T04:23:20.779Z,10.13
2024-05-09T04:24:00.822Z,9.88
2024-05-09T04:24:40.530Z,10.68
2024-05-09T04:25:20.311Z,10.85
2024-05-09T04:26:05.190Z,10.15
2024-05-09T04:26:45.318Z,10.88
2024-05-09T04:27:25.103Z,9.35
2024-05-09T04:28:05.085Z,10.80
2024-05-09T04:28:44.969Z,10.20
2024-05-09T04:29:25.042Z,9.68
2024-05-09T04:30:07.874Z,10.73
2024-05-09T04:30:49.719Z,11.57
2024-05-09T04:31:30.413Z,10.57
2024-05-09T04:32:10.654Z,11.05
2024-05-09T04:32:52.536Z,11.07
2024-05-09T04:33:32.597Z,10.55
2024-05-09T04:34:12.939Z,10.05
2024-05-09T04:34:53.037Z,10.05
2024-05-09T04:35:32.832Z,10.30
2024-05-09T04:36:12.791Z,10.00
2024-05-09T04:36:52.521Z,9.70
2024-05-09T04:37:32.535Z,9.18
2024-05-09T04:38:13.290Z,9.77
2024-05-09T04:38:53.358Z,11.18
2024-05-09T04:39:33.098Z,10.23
2024-05-09T04:40:24.086Z,10.73
2024-05-09T04:41:11.162Z,11.38
2024-05-09T04:41:50.959Z,10.70
2024-05-09T04:42:30.711Z,10.13
2024-05-09T04:43:21.475Z,10.45
2024-05-09T04:44:01.500Z,10.40
2024-05-09T04:44:41.272Z,11.32
2024-05-09T04:45:21.156Z,10.85
2024-05-09T04:46:01.257Z,9.75
2024-05-09T04:46:41.133Z,11.45
2024-05-09T04:47:21.057Z,11.05
2024-05-09T04:48:01.410Z,11.00
2024-05-09T04:48:42.245Z,10.38
2024-05-09T04:49:22.253Z,10.65
2024-05-09T04:50:02.574Z,11.50
2024-05-09T04:50:42.736Z,12.57
2024-05-09T04:51:23.048Z,10.52
2024-05-09T04:52:03.071Z,11.02
2024-05-09T04:52:42.856Z,11.70
2024-05-09T04:53:22.955Z,12.10
2024-05-09T04:54:03.246Z,11.45
2024-05-09T04:54:43.006Z,11.02
2024-05-09T04:55:22.916Z,12.05
2024-05-09T04:56:02.624Z,10.88
2024-05-09T04:56:42.859Z,10.85
2024-05-09T04:57:22.657Z,11.75
2024-05-09T04:58:02.654Z,11.80
2024-05-09T04:58:42.394Z,11.45
2024-05-09T04:59:22.994Z,12.90
2024-05-09T05:00:07.218Z,10.73
2024-05-09T05:00:49.659Z,10.40
2024-05-09T05:01:29.585Z,10.40
2024-05-09T05:02:09.702Z,11.20
2024-05-09T05:02:49.740Z,11.02
2024-05-09T05:03:29.744Z,10.98
2024-05-09T05:04:09.773Z,11.55
2024-05-09T05:04:50.090Z,11.15
2024-05-09T05:05:29.992Z,9.98
2024-05-09T05:06:10.427Z,11.52
2024-05-09T05:06:50.298Z,10.65
2024-05-09T05:08:01.797Z,11.18
2024-05-09T05:08:41.648Z,11.15
2024-05-09T05:09:21.629Z,10.80
2024-05-09T05:10:01.739Z,11.55
2024-05-09T05:10:41.959Z,10.60
2024-05-09T05:11:21.833Z,11.07
2024-05-09T05:12:03.825Z,11.20
2024-05-09T05:13:02.651Z,10.40
2024-05-09T05:13:44.503Z,10.50
2024-05-09T05:14:24.549Z,10.73
2024-05-09T05:15:04.307Z,10.40
2024-05-09T05:16:20.629Z,10.20
2024-05-09T05:17:18.803Z,10.20
2024-05-09T05:17:58.995Z,10.27
2024-05-09T05:18:39.064Z,11.00
2024-05-09T05:19:18.992Z,10.15
2024-05-09T05:19:59.624Z,9.95
2024-05-09T05:20:40.326Z,10.85
2024-05-09T05:21:20.913Z,10.43
2024-05-09T05:22:01.000Z,9.40
2024-05-09T05:22:44.115Z,10.18
2024-05-09T05:23:25.042Z,10.70
2024-05-09T05:24:07.130Z,9.38
2024-05-09T05:24:47.012Z,9.90
2024-05-09T05:25:26.898Z,10.38
2024-05-09T05:26:07.284Z,10.18
2024-05-09T05:26:47.578Z,9.50
2024-05-09T05:27:27.533Z,10.18
2024-05-09T05:28:07.693Z,10.80
2024-05-09T05:28:48.288Z,9.57
2024-05-09T05:29:28.230Z,9.57
2024-05-09T05:30:14.656Z,11.43
2024-05-09T05:30:57.829Z,10.75
2024-05-09T05:31:37.599Z,10.30
2024-05-09T05:32:18.157Z,11.60
2024-05-09T05:32:58.263Z,10.70
2024-05-09T05:33:38.453Z,9.85
2024-05-09T05:34:18.322Z,10.25
2024-05-09T05:34:58.506Z,11.00
2024-05-09T05:35:38.752Z,9.35
2024-05-09T05:36:18.475Z,10.30
2024-05-09T05:36:58.482Z,9.18
2024-05-09T05:37:39.244Z,10.45
2024-05-09T05:38:21.227Z,9.63
2024-05-09T05:39:02.414Z,10.57
2024-05-09T05:39:42.592Z,10.55
2024-05-09T05:40:32.079Z,10.07
2024-05-09T05:41:15.732Z,9.57
2024-05-09T05:41:55.628Z,9.75
2024-05-09T05:42:35.423Z,10.63
2024-05-09T05:43:20.123Z,9.90
2024-05-09T05:44:00.077Z,9.98
2024-05-09T05:44:40.006Z,10.13
2024-05-09T05:45:20.068Z,10.63
2024-05-09T05:46:00.060Z,9.48
2024-05-09T05:46:39.839Z,9.93
2024-05-09T05:47:19.846Z,10.38
2024-05-09T05:48:00.956Z,9.90
2024-05-09T05:48:41.639Z,9.98
2024-05-09T05:49:21.752Z,9.88
2024-05-09T05:50:01.863Z,9.48
2024-05-09T05:50:41.961Z,10.85
2024-05-09T05:51:22.128Z,10.13
2024-05-09T05:52:01.969Z,10.50
2024-05-09T05:52:42.915Z,9.40
2024-05-09T05:53:22.970Z,10.70
2024-05-09T05:54:03.004Z,10.25
2024-05-09T05:54:42.810Z,10.30
2024-05-09T05:55:22.816Z,9.60
2024-05-09T05:56:02.647Z,10.52
2024-05-09T05:56:43.015Z,9.80
2024-05-09T05:57:22.810Z,10.45
2024-05-09T05:58:03.871Z,10.60
2024-05-09T05:58:44.213Z,10.13
2024-05-09T05:59:25.010Z,10.50
2024-05-09T06:00:09.382Z,11.57
2024-05-09T06:00:54.545Z,10.00
2024-05-09T06:01:34.717Z,9.80
2024-05-09T06:02:14.977Z,10.05
2024-05-09T06:02:54.954Z,10.70
2024-05-09T06:03:34.971Z,11.32
2024-05-09T06:04:14.828Z,10.68
2024-05-09T06:04:55.136Z,9.73
2024-05-09T06:05:36.187Z,9.93
2024-05-09T06:06:16.187Z,10.80
2024-05-09T06:06:55.958Z,10.88
2024-05-09T06:07:35.931Z,10.07
2024-05-09T06:08:15.953Z,10.80
2024-05-09T06:08:56.276Z,10.18
2024-05-09T06:09:36.490Z,9.85
2024-05-09T06:10:21.498Z,9.70
2024-05-09T06:11:05.710Z,9.32
2024-05-09T06:11:45.714Z,10.90
2024-05-09T06:12:25.741Z,10.52
2024-05-09T06:13:06.469Z,10.55
2024-05-09T06:13:46.323Z,10.68
2024-05-09T06:14:26.680Z,10.48
2024-05-09T06:15:07.359Z,10.25
2024-05-09T06:15:47.523Z,10.80
2024-05-09T06:16:27.288Z,10.60
2024-05-09T06:17:07.133Z,11.18
2024-05-09T06:17:47.078Z,10.07
2024-05-09T06:18:27.578Z,10.90
2024-05-09T06:19:07.727Z,11.65
2024-05-09T06:19:47.820Z,11.88
2024-05-09T06:20:35.440Z,10.63
2024-05-09T06:21:21.169Z,12.07
2024-05-09T06:22:01.106Z,12.90
2024-05-09T06:22:40.957Z,12.32
2024-05-09T06:23:21.759Z,11.63
2024-05-09T06:24:03.799Z,11.07
2024-05-09T06:24:45.109Z,11.75
2024-05-09T06:25:24.890Z,11.68
2024-05-09T06:26:06.597Z,12.75
2024-05-09T06:26:47.450Z,12.40
2024-05-09T06:27:27.356Z,12.65
2024-05-09T06:28:07.497Z,12.45
2024-05-09T06:28:47.544Z,11.57
2024-05-09T06:29:27.630Z,11.38
2024-05-09T06:30:09.985Z,10.98
2024-05-09T06:30:51.898Z,11.73
2024-05-09T06:31:31.812Z,12.15
2024-05-09T06:32:11.918Z,11.45
2024-05-09T06:32:51.966Z,11.48
2024-05-09T06:33:31.962Z,11.75
2024-05-09T06:34:12.397Z,11.10
2024-05-09T06:34:52.860Z,11.48
2024-05-09T06:35:32.825Z,11.15
2024-05-09T06:36:12.932Z,11.02
2024-05-09T06:36:52.686Z,11.00
2024-05-09T06:37:32.688Z,11.32
2024-05-09T06:38:12.725Z,12.10
2024-05-09T06:38:52.607Z,11.63
2024-05-09T06:39:35.408Z,12.02
2024-05-09T06:40:21.179Z,10.85
2024-05-09T06:41:05.382Z,10.75
2024-05-09T06:41:45.172Z,9.73
2024-05-09T06:42:24.985Z,10.70
2024-05-09T06:43:05.152Z,10.90
2024-05-09T06:43:45.141Z,9.80
2024-05-09T06:44:25.002Z,11.27
2024-05-09T06:45:04.970Z,9.68
2024-05-09T06:45:45.132Z,10.73
2024-05-09T06:46:26.326Z,9.55
2024-05-09T06:47:06.345Z,10.25
2024-05-09T06:47:46.302Z,9.77
2024-05-09T06:48:26.827Z,9.20
2024-05-09T06:49:09.323Z,6.53
2024-05-09T06:49:49.345Z,6.10
2024-05-09T06:50:36.825Z,5.80
2024-05-09T06:51:18.361Z,4.80
2024-05-09T06:51:58.124Z,6.05
2024-05-09T06:52:37.931Z,5.43
2024-05-09T06:53:18.519Z,5.60
2024-05-09T06:53:58.741Z,5.78
2024-05-09T06:54:38.882Z,5.97
2024-05-09T06:55:18.600Z,6.15
2024-05-09T06:55:58.363Z,5.55
2024-05-09T06:57:12.366Z,6.38
2024-05-09T06:57:52.275Z,10.73
2024-05-09T06:58:32.038Z,11.07
2024-05-09T06:59:12.079Z,10.07
2024-05-09T06:59:51.804Z,9.50
2024-05-09T07:00:38.541Z,7.97
2024-05-09T07:01:21.702Z,7.22
2024-05-09T07:02:01.742Z,7.07
2024-05-09T07:02:41.641Z,6.47
2024-05-09T07:03:21.705Z,6.00
2024-05-09T07:04:01.764Z,6.43
2024-05-09T07:04:41.781Z,6.72
2024-05-09T07:05:21.593Z,6.47
2024-05-09T07:06:01.692Z,6.22
2024-05-09T07:06:41.490Z,6.00
2024-05-09T07:07:21.539Z,4.95
2024-05-09T07:08:16.878Z,4.65
2024-05-09T07:08:56.791Z,4.57
2024-05-09T07:09:36.968Z,5.20
2024-05-09T07:10:22.156Z,4.10
2024-05-09T07:11:08.568Z,3.97
2024-05-09T07:11:48.554Z,4.13
2024-05-09T07:12:28.488Z,4.70
2024-05-09T07:13:12.552Z,5.93
2024-05-09T07:13:52.963Z,5.68
2024-05-09T07:14:33.977Z,5.65
2024-05-09T07:15:14.565Z,5.00
2024-05-09T07:15:54.699Z,5.05
2024-05-09T07:16:34.742Z,4.55
2024-05-09T07:17:15.201Z,5.60
2024-05-09T07:17:55.233Z,3.90
2024-05-09T07:18:37.252Z,4.88
2024-05-09T07:19:17.435Z,4.40
2024-05-09T07:19:57.361Z,5.75
2024-05-09T07:20:37.183Z,4.85
2024-05-09T07:21:17.446Z,4.80
2024-05-09T07:21:57.368Z,4.43
2024-05-09T07:22:37.098Z,4.45
2024-05-09T07:23:17.243Z,4.72
2024-05-09T07:23:58.448Z,5.57
2024-05-09T07:24:39.149Z,4.10
2024-05-09T07:25:18.943Z,4.13
2024-05-09T07:25:59.121Z,4.30
2024-05-09T07:26:39.393Z,4.93
2024-05-09T07:27:19.326Z,4.65
2024-05-09T07:27:59.185Z,4.30
2024-05-09T07:28:39.007Z,4.85
2024-05-09T07:29:18.967Z,5.25
2024-05-09T07:29:58.946Z,5.50
2024-05-09T07:30:38.732Z,4.65
2024-05-09T07:31:18.460Z,4.72
2024-05-09T07:31:58.684Z,4.93
2024-05-09T07:32:38.656Z,4.90
2024-05-09T07:33:23.567Z,4.97
2024-05-09T07:34:04.280Z,5.10
2024-05-09T07:34:44.203Z,4.55
2024-05-09T07:35:24.207Z,4.10
2024-05-09T07:36:03.980Z,3.85
2024-05-09T07:36:44.185Z,4.38
2024-05-09T07:37:24.621Z,4.18
2024-05-09T07:38:04.916Z,166.00
2024-05-09T07:38:44.702Z,169.10
2024-05-09T07:39:25.523Z,69.32
2024-05-09T07:40:07.636Z,62.33
2024-05-09T07:40:47.685Z,25.48
2024-05-09T07:41:27.673Z,40.05
2024-05-09T07:42:07.711Z,22.65
2024-05-09T07:42:47.752Z,29.55
2024-05-09T07:43:28.968Z,30.15
2024-05-09T07:44:08.792Z,32.83
2024-05-09T07:44:48.608Z,64.15
2024-05-09T07:45:45.068Z,76.35
2024-05-09T07:47:36.781Z,16.52
2024-05-09T07:49:44.757Z,5.45
2024-05-09T07:50:55.698Z,5.93
2024-05-09T07:53:37.179Z,4.50
2024-05-09T07:54:12.313Z,4.90
2024-05-09T07:54:52.308Z,4.32
2024-05-09T07:55:32.372Z,4.28
2024-05-09T07:56:12.758Z,4.90
2024-05-09T07:56:53.455Z,5.05
2024-05-09T07:57:33.399Z,4.57
2024-05-09T07:58:13.158Z,4.43
2024-05-09T07:58:54.774Z,5.20
2024-05-09T07:59:37.912Z,4.18
2024-05-09T08:00:23.689Z,3.85
2024-05-09T08:01:09.564Z,4.82
2024-05-09T08:01:49.864Z,4.82
2024-05-09T08:02:30.799Z,4.65
2024-05-09T08:03:12.232Z,5.30
2024-05-09T08:03:52.288Z,4.90
2024-05-09T08:04:32.397Z,4.43
2024-05-09T08:05:12.741Z,4.78
2024-05-09T08:05:53.206Z,4.82
2024-05-09T08:06:33.312Z,4.82
2024-05-09T08:07:13.094Z,5.45
2024-05-09T08:07:53.853Z,5.03
2024-05-09T08:08:33.622Z,5.15
2024-05-09T08:09:53.498Z,4.18
2024-05-09T08:10:36.084Z,4.20
2024-05-09T08:11:16.103Z,4.68
2024-05-09T08:11:55.996Z,5.60
2024-05-09T08:12:35.915Z,5.68
2024-05-09T08:13:16.362Z,5.00
2024-05-09T08:13:56.198Z,4.90
2024-05-09T08:14:36.096Z,4.72
2024-05-09T08:15:15.890Z,5.75
2024-05-09T08:15:56.220Z,5.20
2024-05-09T08:16:36.028Z,4.45
2024-05-09T08:17:15.794Z,5.22
2024-05-09T08:17:55.632Z,5.65
2024-05-09T08:18:35.932Z,4.78
2024-05-09T08:19:16.055Z,5.30
2024-05-09T08:19:57.061Z,4.72
2024-05-09T08:20:38.559Z,4.00
2024-05-09T08:21:20.229Z,4.55
2024-05-09T08:22:00.117Z,4.63
2024-05-09T08:22:39.831Z,4.95
2024-05-09T08:23:19.742Z,4.40
2024-05-09T08:24:01.177Z,5.32
2024-05-09T08:24:40.956Z,4.10
2024-05-09T08:25:20.724Z,4.80
2024-05-09T08:26:00.484Z,4.78
2024-05-09T08:26:40.431Z,5.50
2024-05-09T08:27:20.346Z,5.13
2024-05-09T08:28:00.203Z,5.10
2024-05-09T08:28:39.966Z,4.78
2024-05-09T08:29:20.254Z,4.60
2024-05-09T08:30:00.355Z,4.47
2024-05-09T08:30:40.385Z,4.95
2024-05-09T08:31:20.318Z,5.75
2024-05-09T08:32:00.658Z,5.38
2024-05-09T08:32:42.194Z,6.47
2024-05-09T08:33:22.073Z,5.93
2024-05-09T08:34:02.193Z,5.68
2024-05-09T08:34:42.663Z,5.18
2024-05-09T08:35:22.442Z,5.32
2024-05-09T08:36:02.355Z,6.15
2024-05-09T08:36:43.231Z,5.43
2024-05-09T08:37:27.819Z,7.85
2024-05-09T08:38:11.347Z,5.63
2024-05-09T08:38:51.114Z,6.07
2024-05-09T08:39:31.018Z,5.28
2024-05-09T08:40:23.593Z,5.40
2024-05-09T08:41:08.714Z,5.90
2024-05-09T08:41:55.128Z,5.22
2024-05-09T08:42:36.583Z,5.15
2024-05-09T08:43:21.305Z,5.30
2024-05-09T08:44:01.237Z,5.57
2024-05-09T08:44:41.092Z,5.60
2024-05-09T08:45:24.017Z,4.90
2024-05-09T08:46:07.200Z,4.65
2024-05-09T08:46:49.678Z,5.90
2024-05-09T08:47:34.027Z,5.63
2024-05-09T08:48:16.451Z,5.28
2024-05-09T08:48:59.234Z,5.18
2024-05-09T08:49:41.412Z,5.35
2024-05-09T08:50:31.991Z,6.25
2024-05-09T08:51:18.045Z,5.90
2024-05-09T08:51:57.980Z,5.50
2024-05-09T08:52:38.669Z,5.43
2024-05-09T08:53:18.549Z,5.40
2024-05-09T08:53:58.408Z,5.28
2024-05-09T08:54:38.390Z,4.82
2024-05-09T08:55:18.230Z,5.13
2024-05-09T08:56:03.567Z,6.00
2024-05-09T08:56:49.821Z,5.68
2024-05-09T08:57:37.438Z,4.93
2024-05-09T08:58:21.465Z,4.78
2024-05-09T08:59:03.592Z,4.45
2024-05-09T08:59:52.693Z,5.15
2024-05-09T09:00:37.125Z,5.18
2024-05-09T09:01:20.168Z,5.28
2024-05-09T09:02:01.620Z,5.50
2024-05-09T09:02:42.826Z,5.47
2024-05-09T09:03:29.312Z,5.40
2024-05-09T09:04:11.900Z,5.53
2024-05-09T09:05:07.543Z,5.13
2024-05-09T09:06:03.847Z,5.43
2024-05-09T09:06:45.464Z,5.50
2024-05-09T09:07:26.791Z,5.55
2024-05-09T09:08:25.385Z,6.07